Time;durP1;ratioP1;P1;durP2;ratioP2;P2;SDS_P1;SDS_P2;PMS_P1;PMS_P2;Temp;Humidity;BMP_temperature;BMP_pressure;BME280_temperature;BME280_humidity;BME280_pressure;Samples;Min_cycle;Max_cycle;Signal;HPM_P1;HPM_P2
2022/05/24 00:01:27;;;;;;;15.58;9.78;;;;;;;13.30;79.31;99615.98;1673390;85;21024;-57
2022/05/24 00:03:56;;;;;;;15.75;9.75;;;;;;;13.28;75.67;99612.27;1674831;84;21202;-55
2022/05/24 00:06:26;;;;;;;20.40;11.08;;;;;;;13.19;73.88;99617.47;1681354;84;21521;-57
2022/05/24 00:08:53;;;;;;;20.45;10.58;;;;;;;13.14;74.20;99618.59;1682297;84;21105;-55
2022/05/24 00:11:20;;;;;;;15.58;10.15;;;;;;;13.17;74.79;99612.94;1682489;84;21016;-60
2022/05/24 00:13:47;;;;;;;16.20;10.68;;;;;;;13.07;75.70;99619.19;1682308;84;20972;-57
2022/05/24 00:16:14;;;;;;;20.25;10.70;;;;;;;13.64;74.50;99621.17;1681917;84;21163;-65
2022/05/24 00:18:41;;;;;;;15.75;10.15;;;;;;;14.00;70.82;99618.23;1673614;85;20979;-56
2022/05/24 00:21:09;;;;;;;17.92;11.48;;;;;;;13.92;70.76;99619.84;1681545;84;21839;-61
2022/05/24 00:23:37;;;;;;;18.35;11.63;;;;;;;14.11;67.18;99620.10;1681477;84;21026;-55
2022/05/24 00:26:07;;;;;;;18.98;10.65;;;;;;;14.13;66.89;99627.25;1682979;84;21114;-56
2022/05/24 00:28:35;;;;;;;16.45;9.93;;;;;;;14.16;66.69;99624.67;1681638;84;21158;-56
2022/05/24 00:31:03;;;;;;;18.45;10.63;;;;;;;14.16;65.25;99629.91;1682083;84;21432;-63
2022/05/24 00:33:32;;;;;;;21.93;11.22;;;;;;;14.03;64.05;99633.52;1681979;84;20976;-56
2022/05/24 00:36:00;;;;;;;17.50;10.48;;;;;;;14.31;62.22;99632.42;1682704;84;21090;-56
2022/05/24 00:38:36;;;;;;;16.82;11.20;;;;;;;14.17;63.42;99634.13;1681464;84;21003;-56
2022/05/24 00:41:26;;;;;;;15.93;11.05;;;;;;;14.13;65.26;99633.80;1681773;84;21146;-59
2022/05/24 00:44:00;;;;;;;20.55;11.40;;;;;;;13.96;66.52;99639.34;1681698;84;21066;-64
2022/05/24 00:46:50;;;;;;;19.40;12.33;;;;;;;14.08;66.46;99629.20;1680993;84;21130;-63
2022/05/24 00:49:25;;;;;;;21.40;11.73;;;;;;;14.05;66.14;99630.15;1678554;84;20999;-58
2022/05/24 00:51:56;;;;;;;18.60;11.78;;;;;;;14.02;65.96;99629.30;1682131;84;21559;-63
2022/05/24 00:54:23;;;;;;;17.60;10.40;;;;;;;13.92;67.11;99631.63;1681759;84;21769;-56
2022/05/24 00:57:13;;;;;;;20.05;11.30;;;;;;;13.92;68.10;99632.94;1682613;84;21071;-55
2022/05/24 01:00:10;;;;;;;17.12;11.10;;;;;;;14.17;66.58;99633.64;1681839;84;21623;-57
2022/05/24 01:02:38;;;;;;;19.50;11.12;;;;;;;14.00;64.65;99633.95;1675367;85;21082;-56
2022/05/24 01:05:06;;;;;;;19.12;11.65;;;;;;;14.08;63.75;99629.71;1682051;84;21031;-60
2022/05/24 01:07:34;;;;;;;19.65;11.20;;;;;;;14.10;62.77;99630.30;1682540;84;21507;-57
2022/05/24 01:10:09;;;;;;;18.77;10.35;;;;;;;14.04;63.04;99634.59;1681992;84;21096;-56
2022/05/24 01:12:53;;;;;;;19.37;11.03;;;;;;;14.07;62.90;99637.30;1682554;84;20928;-63
2022/05/24 01:15:21;;;;;;;17.98;11.00;;;;;;;12.89;68.31;99642.97;1682296;84;21475;-56
2022/05/24 01:17:49;;;;;;;17.37;11.65;;;;;;;13.93;68.74;99641.09;1682988;84;20980;-58
2022/05/24 01:20:16;;;;;;;21.68;12.45;;;;;;;14.10;68.84;99638.17;1682976;84;21119;-56
2022/05/24 01:23:11;;;;;;;18.90;11.38;;;;;;;14.09;69.33;99637.86;1682452;84;21513;-60
2022/05/24 01:26:04;;;;;;;20.70;12.23;;;;;;;13.93;71.10;99644.50;1682568;84;21079;-55
2022/05/24 01:28:49;;;;;;;19.23;12.33;;;;;;;14.12;70.54;99646.08;1682161;84;21070;-57
2022/05/24 01:31:16;;;;;;;20.70;13.75;;;;;;;14.24;69.17;99642.20;1670117;85;21047;-57
2022/05/24 01:36:35;;;;;;;18.95;11.05;;;;;;;14.33;66.93;99640.88;1682509;84;21162;-56
2022/05/24 01:39:06;;;;;;;20.43;11.83;;;;;;;14.34;65.99;99646.92;1661788;85;21024;-56
2022/05/24 01:41:42;;;;;;;21.55;12.78;;;;;;;14.34;65.01;99642.98;1681661;84;21508;-64
2022/05/24 01:44:09;;;;;;;23.07;11.95;;;;;;;14.41;64.71;99642.91;1669649;84;22091;-56
2022/05/24 01:46:42;;;;;;;23.62;13.58;;;;;;;14.39;63.74;99645.73;1683254;84;21136;-56
2022/05/24 01:49:25;;;;;;;20.88;13.22;;;;;;;14.41;65.00;99642.91;1683403;84;20896;-56
2022/05/24 01:52:07;;;;;;;21.60;11.88;;;;;;;14.48;65.68;99640.48;1683224;84;21066;-57
2022/05/24 01:54:40;;;;;;;17.82;11.80;;;;;;;14.48;67.16;99650.17;1682971;84;21059;-56
2022/05/24 01:57:15;;;;;;;18.35;12.28;;;;;;;14.52;67.49;99650.05;1681199;84;21133;-58
2022/05/24 01:59:44;;;;;;;21.37;12.25;;;;;;;14.63;67.89;99645.34;1682159;84;21480;-56
2022/05/24 02:02:11;;;;;;;18.00;11.80;;;;;;;14.80;67.56;99650.22;1682672;84;21026;-56
2022/05/24 02:04:38;;;;;;;17.90;11.90;;;;;;;14.90;67.41;99643.63;1680805;84;21494;-58
2022/05/24 02:07:14;;;;;;;21.20;11.57;;;;;;;15.06;66.58;99642.44;1673749;85;20952;-65
2022/05/24 02:09:45;;;;;;;17.50;10.90;;;;;;;15.25;65.66;99646.27;1673406;85;22344;-56
2022/05/24 02:12:19;;;;;;;19.90;12.40;;;;;;;15.47;64.02;99653.06;1674267;85;21135;-56
2022/05/24 02:14:51;;;;;;;20.30;12.25;;;;;;;15.57;62.85;99648.05;1673685;85;20912;-63
2022/05/24 02:17:48;;;;;;;17.48;11.45;;;;;;;15.65;62.43;99649.52;1674137;85;21444;-57
2022/05/24 02:20:18;;;;;;;27.58;15.32;;;;;;;15.69;61.76;99648.85;1673787;85;21003;-65
2022/05/24 02:22:46;;;;;;;22.05;13.58;;;;;;;15.75;61.10;99652.37;1662318;85;21577;-56
2022/05/24 02:25:25;;;;;;;21.15;14.07;;;;;;;15.78;60.13;99655.85;1674279;85;21245;-59
2022/05/24 02:27:53;;;;;;;20.52;12.20;;;;;;;15.95;58.85;99651.48;1674101;85;21593;-58
2022/05/24 02:30:23;;;;;;;21.95;14.33;;;;;;;16.15;58.40;99652.91;1673431;85;20964;-57
2022/05/24 02:32:50;;;;;;;22.70;13.18;;;;;;;16.39;57.22;99654.92;1674046;85;21035;-57
2022/05/24 02:35:18;;;;;;;23.42;13.60;;;;;;;16.44;56.48;99654.51;1674033;85;21097;-59
2022/05/24 02:37:46;;;;;;;23.02;12.23;;;;;;;16.49;56.56;99662.48;1662561;85;21580;-56
2022/05/24 02:42:59;;;;;;;18.85;11.68;;;;;;;17.26;56.77;99660.59;1673858;85;21138;-56
2022/05/24 02:45:27;;;;;;;18.85;12.40;;;;;;;17.79;54.94;99662.91;1674139;85;21014;-57
2022/05/24 02:47:54;;;;;;;17.37;12.20;;;;;;;18.03;53.36;99663.45;1673649;85;21541;-65
2022/05/24 02:50:21;;;;;;;21.68;13.00;;;;;;;18.04;52.10;99658.47;1674213;85;21988;-56
2022/05/24 02:52:48;;;;;;;22.45;12.95;;;;;;;18.15;51.11;99660.98;1674140;85;20892;-56
2022/05/24 02:55:16;;;;;;;21.00;12.03;;;;;;;18.29;50.30;99661.37;1648945;85;21018;-57
2022/05/24 02:57:44;;;;;;;22.80;12.03;;;;;;;18.50;50.39;99666.87;1672746;85;21031;-58
2022/05/24 03:00:23;;;;;;;23.93;11.43;;;;;;;18.81;49.70;99664.80;1673456;85;21055;-57
2022/05/24 03:02:51;;;;;;;20.77;12.33;;;;;;;18.74;49.09;99673.97;1674472;85;21736;-56
2022/05/24 03:05:21;;;;;;;18.40;13.00;;;;;;;18.97;48.39;99676.28;1673715;84;21323;-59
2022/05/24 03:10:34;;;;;;;21.37;12.50;;;;;;;19.08;47.35;99679.80;1673748;85;21290;-57
2022/05/24 03:15:48;;;;;;;15.87;10.17;;;;;;;19.41;47.86;99679.50;1673023;85;21367;-57
2022/05/24 03:18:17;;;;;;;18.23;9.87;;;;;;;20.88;45.87;99672.34;1673503;85;21199;-59
2022/05/24 03:20:44;;;;;;;15.70;11.00;;;;;;;22.26;44.04;99675.99;1672538;85;21305;-56
2022/05/24 03:23:12;;;;;;;18.00;11.40;;;;;;;23.21;41.44;99664.13;1672730;85;21710;-57
2022/05/24 03:25:39;;;;;;;19.67;11.57;;;;;;;23.79;39.56;99665.41;1673466;85;21748;-57
2022/05/24 03:28:07;;;;;;;19.60;11.73;;;;;;;24.46;38.13;99671.44;1673333;85;22282;-57
2022/05/24 03:30:41;;;;;;;19.80;11.70;;;;;;;25.23;36.75;99667.02;1673471;85;21105;-56
2022/05/24 03:33:08;;;;;;;17.20;11.40;;;;;;;25.65;35.46;99668.38;1673318;85;21047;-63
2022/05/24 03:35:36;;;;;;;17.23;11.53;;;;;;;25.61;34.48;99668.17;1672604;85;21106;-58
2022/05/24 03:38:03;;;;;;;16.53;10.93;;;;;;;25.45;34.21;99675.66;1673436;85;22101;-56
2022/05/24 03:40:31;;;;;;;17.43;10.77;;;;;;;25.65;33.82;99679.05;1673321;85;21143;-59
2022/05/24 03:42:59;;;;;;;17.80;11.00;;;;;;;26.21;33.46;99675.22;1672950;85;21032;-57
2022/05/24 03:45:26;;;;;;;15.47;11.13;;;;;;;26.81;32.56;99687.50;1673305;85;21405;-65
2022/05/24 03:47:54;;;;;;;16.03;11.83;;;;;;;27.23;31.90;99687.53;1672943;85;21087;-57
2022/05/24 03:50:22;;;;;;;15.87;10.13;;;;;;;27.74;31.22;99680.02;1673765;85;21075;-56
2022/05/24 03:52:50;;;;;;;19.10;11.30;;;;;;;28.41;29.93;99680.22;1672895;85;21580;-56
2022/05/24 03:55:18;;;;;;;17.00;11.10;;;;;;;28.84;29.12;99679.63;1673019;85;21928;-56
2022/05/24 03:58:01;;;;;;;17.83;11.20;;;;;;;29.19;28.68;99682.24;1661463;85;21498;-58
2022/05/24 04:00:35;;;;;;;15.20;11.03;;;;;;;29.90;27.54;99678.93;1672901;85;21122;-62
2022/05/24 04:03:02;;;;;;;14.90;10.43;;;;;;;30.16;26.34;99684.69;1672614;85;21554;-54
2022/05/24 04:05:31;;;;;;;17.63;11.80;;;;;;;29.80;26.53;99682.77;1672771;84;21034;-60
2022/05/24 04:08:00;;;;;;;16.07;10.73;;;;;;;30.12;26.55;99683.74;1673361;85;21976;-55
2022/05/24 04:10:30;;;;;;;17.73;10.83;;;;;;;30.91;26.00;99684.69;1672564;85;21008;-56
2022/05/24 04:12:57;;;;;;;17.77;11.07;;;;;;;31.53;25.11;99683.67;1673229;85;21047;-55
2022/05/24 04:15:24;;;;;;;20.53;11.97;;;;;;;32.25;24.33;99688.52;1673166;85;21035;-55
2022/05/24 04:17:52;;;;;;;17.83;12.67;;;;;;;32.82;23.40;99682.01;1673579;85;21850;-54
2022/05/24 04:20:22;;;;;;;18.87;13.38;;;;;;;33.35;22.75;99687.98;1673128;85;20999;-62
2022/05/24 04:22:51;;;;;;;16.97;12.88;;;;;;;33.96;22.23;99690.15;1673223;85;21567;-55
2022/05/24 04:25:20;;;;;;;18.10;13.08;;;;;;;34.69;21.29;99685.84;1673285;85;21058;-56
2022/05/24 04:27:48;;;;;;;16.40;12.65;;;;;;;35.45;20.73;99686.54;1661845;85;21076;-55
2022/05/24 04:30:18;;;;;;;16.37;11.65;;;;;;;36.06;19.83;99689.56;1647315;85;40121;-63
2022/05/24 04:32:45;;;;;;;15.45;12.47;;;;;;;36.19;19.77;99690.90;1661444;85;21497;-55
2022/05/24 04:35:12;;;;;;;17.20;13.25;;;;;;;36.45;19.52;99687.33;1672853;85;21099;-57
2022/05/24 04:37:40;;;;;;;18.12;12.73;;;;;;;36.94;19.17;99686.31;1673345;85;21126;-55
2022/05/24 04:40:09;;;;;;;14.73;11.68;;;;;;;37.20;18.81;99690.80;1673370;85;21042;-63
2022/05/24 04:42:38;;;;;;;19.92;12.70;;;;;;;37.56;18.20;99692.42;1672758;85;21158;-57
2022/05/24 04:45:11;;;;;;;16.77;12.80;;;;;;;37.88;18.04;99691.25;1673631;85;21023;-56
2022/05/24 04:47:41;;;;;;;16.55;12.03;;;;;;;38.21;17.63;99690.23;1673027;85;20968;-55
2022/05/24 04:50:11;;;;;;;15.30;11.85;;;;;;;38.37;17.54;99694.00;1673219;85;21848;-63
2022/05/24 04:52:39;;;;;;;25.17;12.55;;;;;;;38.73;17.12;99688.64;1673037;85;21126;-56
2022/05/24 04:55:10;;;;;;;15.90;12.75;;;;;;;38.99;16.73;99692.20;1673821;85;21262;-55
2022/05/24 04:57:38;;;;;;;15.00;11.75;;;;;;;39.48;16.33;99697.45;1672489;85;21022;-59
2022/05/24 05:00:07;;;;;;;15.32;10.68;;;;;;;39.72;16.15;99697.99;1673419;85;21370;-55
2022/05/24 05:02:36;;;;;;;;;;;;;;;39.79;15.83;99695.84;1675800;85;21066;-56
2022/05/24 05:05:04;;;;;;;15.78;11.05;;;;;;;39.59;15.73;99697.61;1673395;85;20497;-57
2022/05/24 05:07:33;;;;;;;14.10;10.32;;;;;;;39.51;15.79;99698.00;1682308;84;21018;-62
2022/05/24 05:10:00;;;;;;;14.15;10.98;;;;;;;39.51;16.00;99693.91;1681699;84;20979;-56
2022/05/24 05:12:27;;;;;;;13.43;9.20;;;;;;;39.56;15.81;99698.39;1681597;84;20983;-56
2022/05/24 05:14:55;;;;;;;14.98;10.58;;;;;;;40.02;15.66;99698.86;1669743;84;21804;-55
2022/05/24 05:17:22;;;;;;;14.63;9.98;;;;;;;40.59;15.37;99700.58;1682849;84;21338;-56
2022/05/24 05:19:50;;;;;;;14.23;9.53;;;;;;;40.57;14.94;99698.81;1682071;84;21168;-57
2022/05/24 05:22:18;;;;;;;10.35;8.28;;;;;;;39.96;14.94;99704.53;1680623;84;22074;-58
2022/05/24 05:24:46;;;;;;;12.15;9.00;;;;;;;38.01;16.13;99705.32;1671655;84;21325;-59
2022/05/24 05:27:13;;;;;;;11.68;9.25;;;;;;;36.65;17.26;99708.88;1683043;84;21074;-55
2022/05/24 05:32:34;;;;;;;16.23;9.38;;;;;;;39.49;15.38;99712.63;1681722;84;21256;-55
2022/05/24 05:34:59;;;;;;;10.20;8.00;;;;;;;39.96;15.31;99707.26;1681542;84;21086;-56
2022/05/24 05:37:28;;;;;;;10.75;8.53;;;;;;;40.59;14.75;99706.04;1680653;85;21067;-63
2022/05/24 05:39:56;;;;;;;8.18;6.10;;;;;;;38.54;15.72;99712.15;1680669;85;21133;-60
2022/05/24 05:42:24;;;;;;;7.45;5.40;;;;;;;38.08;15.60;99708.66;1682694;84;21003;-56
2022/05/24 05:44:51;;;;;;;8.38;6.30;;;;;;;37.88;15.48;99704.85;1681152;84;21232;-57
2022/05/24 05:47:18;;;;;;;9.50;6.10;;;;;;;37.72;15.84;99701.64;1682903;84;21027;-56
2022/05/24 05:49:46;;;;;;;8.90;4.70;;;;;;;37.62;15.41;99702.34;1671312;84;21571;-55
2022/05/24 05:52:15;;;;;;;4.30;2.92;;;;;;;37.70;15.72;99702.61;1681259;84;21952;-55
2022/05/24 05:54:42;;;;;;;4.33;2.83;;;;;;;37.69;13.83;99699.09;1681721;84;21565;-56
2022/05/24 05:57:13;;;;;;;5.28;3.67;;;;;;;37.06;13.92;99708.34;1682951;84;21155;-55
2022/05/24 05:59:42;;;;;;;;;;;;;;;36.46;14.94;99711.17;1684891;84;21071;-63
2022/05/24 06:02:11;;;;;;;6.50;3.00;;;;;;;36.20;15.45;99715.52;1682464;84;20196;-56
2022/05/24 06:04:39;;;;;;;4.53;3.17;;;;;;;35.90;14.50;99712.00;1681445;84;21009;-54
2022/05/24 06:07:06;;;;;;;6.00;2.95;;;;;;;35.40;14.28;99716.09;1682559;84;21073;-55
2022/05/24 06:09:34;;;;;;;4.75;3.37;;;;;;;35.01;15.03;99714.11;1682343;84;21205;-62
2022/05/24 06:12:03;;;;;;;5.58;3.40;;;;;;;35.38;14.22;99715.66;1681228;84;21078;-55
2022/05/24 06:14:30;;;;;;;5.10;3.17;;;;;;;34.89;14.21;99716.36;1658479;84;21839;-54
2022/05/24 06:16:57;;;;;;;4.72;3.22;;;;;;;34.55;14.84;99716.15;1682770;84;21639;-57
2022/05/24 06:19:25;;;;;;;6.00;3.15;;;;;;;34.61;14.71;99707.94;1681752;84;21031;-62
2022/05/24 06:21:52;;;;;;;6.03;3.42;;;;;;;34.61;14.86;99703.09;1681001;84;21147;-62
2022/05/24 06:24:19;;;;;;;5.40;3.65;;;;;;;34.49;15.06;99697.27;1681933;84;21348;-54
2022/05/24 06:26:50;;;;;;;7.05;4.00;;;;;;;34.41;15.03;99697.47;1682749;84;21473;-55
2022/05/24 06:29:18;;;;;;;8.03;5.30;;;;;;;34.20;14.76;99699.16;1682867;84;21039;-56
2022/05/24 06:31:46;;;;;;;7.78;4.87;;;;;;;34.41;14.49;99706.94;1669105;84;21606;-59
2022/05/24 06:34:13;;;;;;;7.50;5.35;;;;;;;34.58;14.49;99701.09;1683085;84;21365;-55
2022/05/24 06:36:40;;;;;;;10.55;4.95;;;;;;;35.17;14.53;99707.20;1683484;84;21010;-56
2022/05/24 06:39:08;;;;;;;9.13;4.78;;;;;;;35.64;14.16;99701.95;1682424;84;21089;-54
2022/05/24 06:41:35;;;;;;;6.85;4.58;;;;;;;35.64;13.64;99704.08;1682436;84;21022;-61
2022/05/24 06:44:05;;;;;;;7.75;4.90;;;;;;;34.60;13.56;99702.31;1682760;84;21453;-57
2022/05/24 06:46:33;;;;;;;9.70;5.08;;;;;;;33.70;14.44;99699.42;1683291;84;21314;-57
2022/05/24 06:49:00;;;;;;;7.15;5.37;;;;;;;33.48;14.97;99707.59;1682531;84;21501;-56
2022/05/24 06:51:29;;;;;;;10.38;5.70;;;;;;;33.50;14.47;99704.77;1681940;84;20947;-59
2022/05/24 06:53:56;;;;;;;9.70;5.20;;;;;;;32.99;14.87;99706.56;1682214;84;21408;-57
2022/05/24 06:56:23;;;;;;;11.18;5.40;;;;;;;32.90;15.36;99706.13;1682281;84;21604;-57
2022/05/24 07:02:25;;;;;;;13.80;7.10;;;;;;;33.06;15.09;99702.13;1681542;84;21141;-57
2022/05/24 07:04:02;;;;;;;;;;;;;;;33.87;14.87;99696.34;1684281;84;20608;-56
2022/05/24 07:06:30;;;;;;;7.42;4.50;;;;;;;34.32;14.76;99692.25;1682795;84;20190;-55
2022/05/24 07:08:57;;;;;;;7.20;3.92;;;;;;;34.83;14.02;99694.80;1681620;84;21006;-57
2022/05/24 07:11:24;;;;;;;9.63;5.05;;;;;;;34.87;13.79;99690.23;1682453;84;21247;-59
2022/05/24 07:13:52;;;;;;;7.92;4.58;;;;;;;35.97;13.04;99691.75;1681215;84;21490;-54
2022/05/24 07:16:20;;;;;;;7.33;4.37;;;;;;;35.77;13.33;99688.39;1682111;84;21529;-57
2022/05/24 07:18:47;;;;;;;6.22;3.98;;;;;;;35.56;13.21;99684.22;1638153;86;21577;-58
2022/05/24 07:21:14;;;;;;;5.67;3.70;;;;;;;33.77;15.05;99682.79;1647511;86;21464;-55
2022/05/24 07:23:42;;;;;;;4.72;2.90;;;;;;;33.79;14.77;99692.70;1621031;87;21745;-53
2022/05/24 07:26:15;;;;;;;5.20;3.37;;;;;;;34.34;14.57;99694.83;1682089;84;20986;-56
2022/05/24 07:28:42;;;;;;;5.80;3.75;;;;;;;35.00;13.84;99684.08;1681501;84;21050;-61
2022/05/24 07:31:10;;;;;;;7.22;3.87;;;;;;;35.43;13.63;99692.34;1682656;84;21050;-57
2022/05/24 07:33:37;;;;;;;6.70;4.20;;;;;;;35.75;13.17;99697.45;1682103;84;21102;-55
2022/05/24 07:36:06;;;;;;;9.85;3.90;;;;;;;36.09;13.00;99694.84;1682905;84;21169;-55
2022/05/24 07:38:34;;;;;;;6.40;3.70;;;;;;;36.39;12.64;99693.45;1681678;84;21619;-55
2022/05/24 07:46:32;;;;;;;6.53;3.85;;;;;;;37.69;12.38;99680.63;1681713;84;21173;-56
2022/05/24 07:48:59;;;;;;;9.58;3.98;;;;;;;38.37;11.47;99680.97;1682652;84;21985;-54
2022/05/24 07:51:27;;;;;;;7.80;3.33;;;;;;;38.77;11.79;99687.28;1681735;84;21353;-55
2022/05/24 07:53:55;;;;;;;4.97;3.00;;;;;;;38.77;11.43;99685.33;1681551;85;21094;-54
2022/05/24 07:56:23;;;;;;;6.30;3.25;;;;;;;38.26;11.27;99687.71;1683112;84;21101;-61
2022/05/24 07:58:50;;;;;;;9.90;3.00;;;;;;;37.34;11.83;99694.17;1681100;84;21015;-55
2022/05/24 08:01:18;;;;;;;6.58;3.85;;;;;;;36.24;12.33;99704.71;1683167;84;21320;-55
2022/05/24 08:03:45;;;;;;;4.37;3.10;;;;;;;35.26;12.97;99702.31;1671565;85;20943;-57
2022/05/24 08:06:12;;;;;;;7.05;3.37;;;;;;;34.58;12.64;99698.39;1682651;84;21004;-54
2022/05/24 08:08:39;;;;;;;6.53;2.92;;;;;;;34.08;13.56;99698.16;1682384;84;20993;-57
2022/05/24 08:11:07;;;;;;;5.85;3.37;;;;;;;34.28;13.70;99698.94;1682458;84;21467;-55
2022/05/24 08:13:35;;;;;;;5.87;3.08;;;;;;;34.76;12.82;99696.02;1683132;84;21681;-56
2022/05/24 08:16:03;;;;;;;4.62;3.25;;;;;;;34.97;12.55;99700.47;1682077;84;21051;-55
2022/05/24 08:18:30;;;;;;;5.03;3.37;;;;;;;34.98;12.86;99697.97;1681759;84;21355;-58
2022/05/24 08:20:58;;;;;;;5.47;3.75;;;;;;;34.98;12.86;99697.97;1681221;84;21140;-55
2022/05/24 08:23:27;;;;;;;5.42;3.95;;;;;;;35.40;12.50;99688.99;1682078;84;21491;-56
2022/05/24 08:25:55;;;;;;;4.85;3.12;;;;;;;36.00;12.19;99702.68;1682573;84;21246;-56
2022/05/24 08:28:23;;;;;;;6.42;3.40;;;;;;;36.38;11.60;99683.75;1681854;84;21038;-55
2022/05/24 08:30:50;;;;;;;5.33;3.25;;;;;;;36.45;11.49;99683.25;1682000;84;21452;-56
2022/05/24 08:33:17;;;;;;;5.28;3.30;;;;;;;36.47;11.70;99686.39;1682391;84;21101;-55
2022/05/24 08:35:47;;;;;;;6.12;3.47;;;;;;;36.66;11.46;99688.72;1671843;84;21521;-56
2022/05/24 08:38:14;;;;;;;4.42;2.85;;;;;;;36.63;11.14;99689.45;1682101;84;21338;-57
2022/05/24 08:40:43;;;;;;;6.00;3.30;;;;;;;36.52;11.53;99679.84;1681939;84;21545;-61
2022/05/24 08:43:56;;;;;;;4.83;3.17;;;;;;;36.49;11.21;99680.02;1682427;84;22114;-55
2022/05/24 08:49:20;;;;;;;8.30;3.65;;;;;;;36.34;10.90;99662.58;1681339;84;21039;-56
2022/05/24 08:51:54;;;;;;;5.72;4.03;;;;;;;36.20;11.43;99668.61;1681609;84;21083;-57
2022/05/24 08:54:38;;;;;;;6.97;4.25;;;;;;;36.27;11.41;99667.34;1680962;84;21027;-56
2022/05/24 08:57:14;;;;;;;7.47;3.90;;;;;;;36.58;11.10;99668.86;1681331;84;21000;-56
2022/05/24 08:59:57;;;;;;;7.60;4.10;;;;;;;36.81;10.75;99672.76;1681777;84;21153;-56
2022/05/24 09:02:24;;;;;;;7.70;4.20;;;;;;;36.51;10.78;99670.91;1682574;84;21639;-57
2022/05/24 09:04:51;;;;;;;6.78;3.72;;;;;;;36.23;11.04;99677.38;1682059;84;22303;-58
2022/05/24 09:07:42;;;;;;;5.55;3.42;;;;;;;36.22;11.19;99678.53;1680922;84;21922;-57
2022/05/24 09:10:23;;;;;;;8.88;4.20;;;;;;;36.57;10.95;99668.66;1676175;84;21186;-57
2022/05/24 09:13:46;;;;;;;7.05;3.80;;;;;;;36.90;10.68;99667.81;1681674;84;21011;-56
2022/05/24 09:16:17;;;;;;;7.25;3.50;;;;;;;37.06;10.80;99660.01;1681916;84;21350;-57
2022/05/24 09:19:07;;;;;;;7.00;3.67;;;;;;;37.40;10.92;99663.36;1682741;84;21142;-58
2022/05/24 09:21:39;;;;;;;6.17;4.15;;;;;;;37.89;10.47;99653.97;1682303;84;21077;-63
2022/05/24 09:24:13;;;;;;;6.67;3.35;;;;;;;37.89;10.47;99653.97;1681985;84;21105;-57
2022/05/24 09:27:20;;;;;;;6.15;3.40;;;;;;;37.95;9.99;99650.47;1681854;84;21036;-58
2022/05/24 09:30:26;;;;;;;5.42;3.80;;;;;;;37.84;10.16;99655.64;1671377;84;21020;-56
2022/05/24 09:32:54;;;;;;;5.75;3.27;;;;;;;37.55;10.34;99652.02;1681791;84;21675;-58
2022/05/24 09:35:26;;;;;;;6.05;3.47;;;;;;;36.95;10.29;99663.99;1638192;85;21305;-59
2022/05/24 09:38:14;;;;;;;6.15;3.80;;;;;;;36.56;10.36;99659.52;1682177;84;21108;-58
2022/05/24 09:40:49;;;;;;;7.25;4.33;;;;;;;36.15;10.53;99664.88;1678451;84;21077;-58
2022/05/24 09:43:29;;;;;;;5.45;4.20;;;;;;;35.98;10.57;99656.69;1681557;84;21015;-55
2022/05/24 09:46:22;;;;;;;7.08;4.17;;;;;;;35.92;11.17;99660.89;1672447;85;21236;-59
2022/05/24 09:49:03;;;;;;;6.70;3.95;;;;;;;36.25;10.60;99651.99;1682393;84;20976;-55
2022/05/24 09:51:38;;;;;;;5.45;3.58;;;;;;;36.52;10.55;99657.56;1682439;84;21084;-56
2022/05/24 09:54:15;;;;;;;6.53;3.62;;;;;;;36.11;11.05;99658.05;1682572;84;21043;-57
2022/05/24 09:57:01;;;;;;;5.35;3.65;;;;;;;35.49;11.38;99657.01;1680615;84;21035;-58
2022/05/24 09:59:29;;;;;;;7.00;3.70;;;;;;;35.48;11.57;99660.06;1673978;84;21319;-56
2022/05/24 10:01:57;;;;;;;6.58;3.80;;;;;;;35.72;11.43;99654.80;1681675;85;21078;-56
2022/05/24 10:04:31;;;;;;;7.03;3.67;;;;;;;35.62;11.43;99662.23;1683403;84;21572;-56
2022/05/24 10:07:05;;;;;;;7.62;3.50;;;;;;;35.46;11.24;99656.38;1682832;83;21794;-56
2022/05/24 10:09:56;;;;;;;5.45;3.10;;;;;;;35.21;11.54;99661.98;1673896;85;21575;-56
2022/05/24 10:12:36;;;;;;;6.67;2.90;;;;;;;35.18;10.96;99664.06;1673505;85;21404;-57
2022/05/24 10:15:30;;;;;;;4.78;3.00;;;;;;;35.26;11.21;99663.02;1674242;85;21066;-55
2022/05/24 10:18:17;;;;;;;6.03;3.35;;;;;;;35.05;11.34;99650.72;1673035;85;21034;-57
2022/05/24 10:21:37;;;;;;;4.87;3.35;;;;;;;34.85;12.12;99664.06;1673662;85;21556;-56
2022/05/24 10:25:01;;;;;;;4.20;3.00;;;;;;;34.50;11.65;99667.70;1673307;85;20921;-56
2022/05/24 10:27:58;;;;;;;4.87;3.40;;;;;;;34.03;11.49;99671.98;1673710;85;21184;-57
2022/05/24 10:30:57;;;;;;;7.72;3.47;;;;;;;33.31;11.74;99666.28;1673347;85;21075;-55
2022/05/24 10:39:55;;;;;;;6.77;3.80;;;;;;;31.40;13.38;99682.09;1672885;85;21059;-55
2022/05/24 10:43:15;;;;;;;5.33;3.53;;;;;;;31.04;13.77;99688.98;1672928;85;22009;-55
2022/05/24 10:45:50;;;;;;;5.92;3.55;;;;;;;30.89;13.80;99695.01;1672219;85;21967;-55
2022/05/24 10:48:26;;;;;;;5.07;3.30;;;;;;;30.85;14.17;99692.20;1673661;85;21051;-61
2022/05/24 10:50:59;;;;;;;5.83;3.33;;;;;;;31.21;14.26;99691.47;1663484;85;21461;-57
2022/05/24 10:53:40;;;;;;;7.50;3.37;;;;;;;31.75;14.21;99691.86;1673253;85;21015;-56
2022/05/24 10:56:44;;;;;;;4.17;2.47;;;;;;;32.23;13.79;99684.23;1672783;85;21318;-58
2022/05/24 10:59:43;;;;;;;4.63;2.57;;;;;;;32.76;13.56;99684.16;1673405;85;21900;-56
2022/05/24 11:02:34;;;;;;;5.03;2.93;;;;;;;33.24;13.06;99685.02;1672774;85;21090;-58
2022/05/24 11:05:24;;;;;;;4.28;2.20;;;;;;;33.62;12.73;99689.02;1617690;88;21466;-56
2022/05/24 11:08:14;;;;;;;6.00;2.47;;;;;;;33.64;12.77;99679.43;1619951;87;21048;-57
2022/05/24 11:10:42;;;;;;;5.75;3.08;;;;;;;33.73;12.89;99678.45;1658289;84;21446;-57
2022/05/24 11:13:15;;;;;;;4.53;2.73;;;;;;;34.07;12.50;99677.66;1672733;85;20990;-55
2022/05/24 11:15:56;;;;;;;5.75;3.15;;;;;;;34.28;12.37;99669.75;1672262;85;21031;-58
2022/05/24 11:18:25;;;;;;;6.67;2.37;;;;;;;34.17;12.09;99674.95;1672435;84;21671;-57
2022/05/24 11:21:21;;;;;;;4.42;2.52;;;;;;;33.52;12.75;99680.09;1673991;84;21128;-57
2022/05/24 11:23:53;;;;;;;4.30;2.70;;;;;;;33.10;12.68;99679.26;1672248;85;21338;-55
2022/05/24 11:26:24;;;;;;;5.87;2.87;;;;;;;32.58;12.95;99682.36;1672164;85;21460;-58
2022/05/24 11:28:55;;;;;;;3.97;2.33;;;;;;;32.27;13.29;99685.69;1673314;84;21020;-59
2022/05/24 11:31:40;;;;;;;5.90;2.50;;;;;;;32.10;13.26;99684.06;1672184;85;21248;-64
2022/05/24 11:34:14;;;;;;;3.23;2.10;;;;;;;32.06;13.68;99679.70;1672875;85;21034;-57
2022/05/24 11:36:45;;;;;;;3.47;2.13;;;;;;;32.28;13.23;99675.14;1657785;84;21321;-59
2022/05/24 11:39:25;;;;;;;4.00;2.00;;;;;;;32.63;12.90;99666.48;1667436;84;20950;-56
2022/05/24 11:42:19;;;;;;;;;;;;;;;33.10;12.60;99661.13;1672507;84;21036;-55
2022/05/24 11:44:46;;;;;;;3.63;2.10;;;;;;;33.36;12.63;99669.27;1673275;84;20145;-56
2022/05/24 11:47:40;;;;;;;4.87;2.37;;;;;;;33.50;13.08;99671.56;1672864;85;21005;-57
2022/05/24 11:50:14;;;;;;;4.33;2.80;;;;;;;33.74;12.78;99671.33;1651193;85;22295;-58
2022/05/24 11:53:11;;;;;;;4.60;2.70;;;;;;;33.82;11.87;99679.02;1661386;85;20993;-57
2022/05/24 11:55:43;;;;;;;6.90;2.67;;;;;;;33.77;11.93;99676.61;1671817;85;21047;-65
2022/05/24 11:58:32;;;;;;;6.50;2.63;;;;;;;33.38;11.89;99679.95;1672487;85;21382;-56
2022/05/24 12:01:16;;;;;;;3.60;2.40;;;;;;;32.97;12.09;99677.78;1673271;84;20997;-56
2022/05/24 12:10:11;;;;;;;5.37;2.97;;;;;;;32.46;12.97;99681.04;1649903;85;21057;-59
2022/05/24 12:13:16;;;;;;;5.07;2.57;;;;;;;32.40;13.10;99685.91;1637901;85;22358;-56
2022/05/24 12:15:48;;;;;;;4.03;2.40;;;;;;;32.14;12.74;99678.20;1671015;85;21052;-56
2022/05/24 12:18:20;;;;;;;4.80;2.30;;;;;;;31.64;13.32;99686.70;1673006;84;21284;-58
2022/05/24 12:20:56;;;;;;;5.47;2.80;;;;;;;31.61;13.61;99684.11;1662854;84;20977;-57
2022/05/24 12:23:38;;;;;;;6.27;2.73;;;;;;;31.60;13.44;99679.86;1671753;85;21028;-64
2022/05/24 12:26:17;;;;;;;5.57;2.70;;;;;;;31.49;13.54;99676.83;1672900;85;20970;-56
2022/05/24 12:28:50;;;;;;;5.07;2.50;;;;;;;31.62;14.03;99676.25;1657370;85;21132;-60
2022/05/24 12:31:25;;;;;;;3.80;2.50;;;;;;;31.73;13.31;99674.66;1673050;84;21895;-58
2022/05/24 12:34:01;;;;;;;5.67;2.63;;;;;;;31.94;13.21;99672.43;1672807;85;21522;-56